createdAt,value
2023-05-11T00:04:57.299Z,23.1
2023-05-11T00:10:15.899Z,23.1
2023-05-11T00:15:35.139Z,23.1
2023-05-11T00:20:53.586Z,23.1
2023-05-11T00:26:11.790Z,23.1
2023-05-11T00:31:30.876Z,23.1
2023-05-11T00:36:49.299Z,23.1
2023-05-11T00:42:07.421Z,23.1
2023-05-11T00:47:25.635Z,23.2
2023-05-11T00:52:45.431Z,23.1
2023-05-11T00:58:03.678Z,23.2
2023-05-11T01:03:21.990Z,23.2
2023-05-11T01:08:40.490Z,23.1
2023-05-11T01:13:58.673Z,23.2
2023-05-11T01:19:17.041Z,23.1
2023-05-11T01:24:35.566Z,23.2
2023-05-11T01:29:54.103Z,23.2
2023-05-11T01:35:12.280Z,23.2
2023-05-11T01:40:30.583Z,23.2
2023-05-11T01:45:51.906Z,23.2
2023-05-11T01:51:09.990Z,23.2
2023-05-11T01:56:28.129Z,23.2
2023-05-11T02:01:46.764Z,23.2
2023-05-11T02:07:05.331Z,23.2
2023-05-11T02:12:23.665Z,23.2
2023-05-11T02:17:42.032Z,23.2
2023-05-11T02:23:00.308Z,23.2
2023-05-11T02:28:18.630Z,23.2
2023-05-11T02:33:36.999Z,23.2
2023-05-11T02:38:55.381Z,23.2
2023-05-11T02:44:13.547Z,23.2
2023-05-11T02:49:31.691Z,23.2
2023-05-11T02:54:49.653Z,23.2
2023-05-11T03:00:08.009Z,23.1
2023-05-11T03:05:26.352Z,23.2
2023-05-11T03:10:44.525Z,23.2
2023-05-11T03:16:02.974Z,23.2
2023-05-11T03:21:21.442Z,23.2
2023-05-11T03:26:39.913Z,23.2
2023-05-11T03:31:58.324Z,23.2
2023-05-11T03:37:16.794Z,23.2
2023-05-11T03:42:34.990Z,23.2
2023-05-11T03:47:53.569Z,23.2
2023-05-11T03:53:11.815Z,23.2
2023-05-11T03:58:29.975Z,23.2
2023-05-11T04:03:48.765Z,23.2
2023-05-11T04:09:07.460Z,23.2
2023-05-11T04:14:25.842Z,23.2
2023-05-11T04:19:44.245Z,23.2
2023-05-11T04:25:02.660Z,23.1
2023-05-11T04:30:21.535Z,23.1
2023-05-11T04:35:40.278Z,23.1
2023-05-11T04:40:59.701Z,23
2023-05-11T04:46:18.121Z,22.5
2023-05-11T04:51:36.521Z,22.1
2023-05-11T04:56:54.502Z,21.8
2023-05-11T05:02:13.198Z,21.9
2023-05-11T05:07:31.898Z,22
2023-05-11T05:12:50.322Z,22.2
2023-05-11T05:18:08.790Z,22.2
2023-05-11T05:23:27.403Z,22.2
2023-05-11T05:28:45.757Z,22.2
2023-05-11T05:34:04.112Z,22.3
2023-05-11T05:39:07.032Z,22.3
2023-05-11T05:44:10.065Z,22.3
2023-05-11T05:49:12.818Z,22.4
2023-05-11T05:54:31.181Z,22.4
2023-05-11T05:59:50.808Z,22.4
2023-05-11T06:05:09.144Z,22.4
2023-05-11T06:10:27.509Z,22.4
2023-05-11T06:15:45.924Z,22.4
2023-05-11T06:21:04.546Z,22.5
2023-05-11T06:26:22.991Z,22.5
2023-05-11T06:31:41.622Z,22.5
2023-05-11T06:37:00.180Z,22.5
2023-05-11T06:42:18.391Z,22.5
2023-05-11T06:47:36.588Z,22.5
2023-05-11T06:52:54.867Z,22.5
2023-05-11T06:58:13.028Z,22.5
2023-05-11T07:03:31.458Z,22.5
2023-05-11T07:08:49.529Z,22.5
2023-05-11T07:14:07.587Z,22.5
2023-05-11T07:19:25.792Z,22.5
2023-05-11T07:24:44.114Z,22.5
2023-05-11T07:30:02.057Z,22.6
2023-05-11T07:35:24.006Z,22.6
2023-05-11T07:40:42.631Z,22.6
2023-05-11T07:46:01.001Z,22.6
2023-05-11T07:51:19.796Z,22.6
2023-05-11T07:56:38.366Z,22.5
2023-05-11T08:01:42.003Z,22.6
2023-05-11T08:07:00.264Z,22.6
2023-05-11T08:12:18.659Z,22.6
2023-05-11T08:17:37.070Z,22.7
2023-05-11T08:22:55.653Z,22.7
2023-05-11T08:28:14.187Z,22.7
2023-05-11T08:33:39.245Z,22.7
2023-05-11T08:38:59.732Z,22.7
2023-05-11T08:44:18.103Z,22.7
2023-05-11T08:49:36.479Z,22.8
2023-05-11T08:54:54.808Z,22.8
2023-05-11T09:00:13.648Z,22.8
2023-05-11T09:05:32.101Z,22.8
2023-05-11T09:10:50.685Z,22.8
2023-05-11T09:16:35.979Z,22.8
2023-05-11T09:21:55.942Z,22.9
2023-05-11T09:32:39.428Z,22.9
2023-05-11T09:37:58.019Z,22.9
2023-05-11T09:43:16.769Z,22.9
2023-05-11T09:48:34.926Z,22.9
2023-05-11T09:53:53.251Z,22.9
2023-05-11T09:59:11.633Z,22.9
2023-05-11T10:04:30.200Z,22.9
2023-05-11T10:09:48.998Z,22.9
2023-05-11T10:14:51.584Z,22.9
2023-05-11T10:20:09.979Z,22.9
2023-05-11T10:25:28.305Z,22.9
2023-05-11T10:30:46.895Z,22.9
2023-05-11T10:36:05.042Z,23
2023-05-11T10:41:23.375Z,23
2023-05-11T10:46:41.939Z,23
2023-05-11T10:52:00.490Z,23
2023-05-11T10:57:18.601Z,23
2023-05-11T11:02:37.068Z,23
2023-05-11T11:07:55.692Z,23
2023-05-11T11:13:14.310Z,23
2023-05-11T11:18:32.615Z,23
2023-05-11T11:23:50.907Z,23
2023-05-11T11:29:09.326Z,23
2023-05-11T11:34:27.831Z,23
2023-05-11T11:39:46.192Z,23
2023-05-11T11:45:04.307Z,23
2023-05-11T11:50:22.724Z,23
2023-05-11T11:55:41.262Z,23
2023-05-11T12:01:00.292Z,23
2023-05-11T12:06:18.502Z,23
2023-05-11T12:11:36.906Z,23
2023-05-11T12:16:39.841Z,23
2023-05-11T12:21:58.150Z,23
2023-05-11T12:27:11.981Z,23
2023-05-11T12:32:30.606Z,23
2023-05-11T12:37:49.071Z,23
2023-05-11T12:43:07.231Z,23
2023-05-11T12:48:25.648Z,23
2023-05-11T12:53:43.638Z,23
2023-05-11T12:59:01.807Z,23
2023-05-11T13:04:21.369Z,23
2023-05-11T13:09:39.745Z,23
2023-05-11T13:14:42.346Z,22.9
2023-05-11T13:20:00.569Z,22.9
2023-05-11T13:25:19.668Z,22.9
2023-05-11T13:30:38.996Z,23
2023-05-11T13:35:57.484Z,23
2023-05-11T13:41:15.926Z,23
2023-05-11T13:46:34.541Z,22.9
2023-05-11T13:51:53.104Z,23
2023-05-11T13:57:12.083Z,22.9
2023-05-11T14:02:30.488Z,22.9
2023-05-11T14:07:49.615Z,22.9
2023-05-11T14:13:07.974Z,22.9
2023-05-11T14:18:27.017Z,22.9
2023-05-11T14:24:10.388Z,22.9
2023-05-11T14:29:30.721Z,22.9
2023-05-11T14:34:48.915Z,22.9
2023-05-11T14:40:07.071Z,22.9
2023-05-11T14:45:25.569Z,22.9
2023-05-11T14:50:43.974Z,22.9
2023-05-11T14:56:02.160Z,22.8
2023-05-11T15:01:20.621Z,22.8
2023-05-11T15:06:39.150Z,22.8
2023-05-11T15:11:57.785Z,22.8
2023-05-11T15:17:15.820Z,22.8
2023-05-11T15:22:34.366Z,22.8
2023-05-11T15:27:52.683Z,22.8
2023-05-11T15:33:11.470Z,22.8
2023-05-11T15:38:29.939Z,22.8
2023-05-11T15:43:48.047Z,22.8
2023-05-11T15:49:06.252Z,22.8
2023-05-11T15:54:24.634Z,22.9
2023-05-11T15:59:42.977Z,22.9
2023-05-11T16:05:01.745Z,22.9
2023-05-11T16:10:23.077Z,22.9
2023-05-11T16:15:41.271Z,22.9
2023-05-11T16:20:59.683Z,22.9
2023-05-11T16:26:18.355Z,22.9
2023-05-11T16:31:36.752Z,22.9
2023-05-11T16:36:59.286Z,22.9
2023-05-11T16:42:18.245Z,22.9
2023-05-11T16:47:39.213Z,22.9
2023-05-11T16:52:57.827Z,22.9
2023-05-11T16:58:00.236Z,22.8
2023-05-11T17:03:19.268Z,22.8
2023-05-11T17:08:38.039Z,22.8
2023-05-11T17:13:56.626Z,22.8
2023-05-11T17:19:15.001Z,22.8
2023-05-11T17:24:33.940Z,22.8
2023-05-11T17:29:52.652Z,22.8
2023-05-11T17:35:10.933Z,22.7
2023-05-11T17:40:29.246Z,22.7
2023-05-11T17:45:47.685Z,22.7
2023-05-11T17:51:06.204Z,22.7
2023-05-11T17:56:24.572Z,22.7
2023-05-11T18:01:45.450Z,22.5
2023-05-11T18:07:03.901Z,22.6
2023-05-11T18:12:24.804Z,22.6
2023-05-11T18:17:45.289Z,22.6
2023-05-11T18:23:05.382Z,22.5
2023-05-11T18:28:26.158Z,22.5
2023-05-11T18:33:45.586Z,22.6
2023-05-11T18:39:04.165Z,22.5
2023-05-11T18:44:23.578Z,22.5
2023-05-11T18:49:58.384Z,22.5
2023-05-11T18:55:17.920Z,22.5
2023-05-11T19:00:39.359Z,22.5
2023-05-11T19:06:02.111Z,22.5
2023-05-11T19:11:20.283Z,22.5
2023-05-11T19:16:24.654Z,22.5
2023-05-11T19:21:47.523Z,22.5
2023-05-11T19:27:11.833Z,22.5
2023-05-11T19:32:39.130Z,22.5
2023-05-11T19:37:57.533Z,22.5
2023-05-11T19:43:15.689Z,22.6
2023-05-11T19:48:33.826Z,22.6
2023-05-11T19:53:52.007Z,22.6
2023-05-11T19:59:10.499Z,22.6
2023-05-11T20:04:28.929Z,22.7
2023-05-11T20:09:47.308Z,22.8
2023-05-11T20:15:05.694Z,22.8
2023-05-11T20:20:24.085Z,22.9
2023-05-11T20:25:42.693Z,22.9
2023-05-11T20:31:01.375Z,23
2023-05-11T20:36:19.799Z,23
2023-05-11T20:41:38.382Z,22.9
2023-05-11T20:46:56.892Z,22.9
2023-05-11T20:52:15.118Z,23
2023-05-11T20:57:33.678Z,23
2023-05-11T21:02:52.575Z,23
2023-05-11T21:08:11.424Z,23
2023-05-11T21:13:29.793Z,23
2023-05-11T21:18:48.664Z,23
2023-05-11T21:24:06.974Z,22.9
2023-05-11T21:29:25.387Z,22.9
2023-05-11T21:34:43.752Z,22.9
2023-05-11T21:40:01.919Z,22.9
2023-05-11T21:45:20.607Z,22.8
2023-05-11T21:50:38.803Z,22.8
2023-05-11T21:55:56.940Z,22.8
2023-05-11T22:01:15.485Z,22.8
2023-05-11T22:06:33.774Z,22.8
2023-05-11T22:11:52.129Z,22.8
2023-05-11T22:17:10.326Z,22.8
2023-05-11T22:22:28.820Z,22.8
2023-05-11T22:27:47.301Z,22.8
2023-05-11T22:33:05.923Z,22.8
2023-05-11T22:38:24.455Z,22.7
2023-05-11T22:43:42.783Z,22.7
2023-05-11T22:49:01.046Z,22.7
2023-05-11T22:54:19.577Z,22.7
2023-05-11T22:59:37.821Z,22.7
2023-05-11T23:04:56.147Z,22.7
2023-05-11T23:10:14.466Z,22.7
2023-05-11T23:15:33.571Z,22.7
2023-05-11T23:20:51.919Z,22.7
2023-05-11T23:26:10.069Z,22.6
2023-05-11T23:31:28.447Z,22.6
2023-05-11T23:36:46.886Z,22.6
2023-05-11T23:42:05.014Z,22.6
2023-05-11T23:47:23.345Z,22.6
2023-05-11T23:52:41.981Z,22.6
2023-05-11T23:58:00.336Z,22.6
